createdAt,value
2018-09-29T00:02:00.734Z,11.10
2018-09-29T00:04:28.672Z,13.60
2018-09-29T00:06:56.598Z,9.87
2018-09-29T00:09:24.521Z,8.33
2018-09-29T00:11:52.468Z,8.13
2018-09-29T00:14:20.377Z,8.50
2018-09-29T00:16:48.309Z,7.93
2018-09-29T00:19:16.255Z,9.77
2018-09-29T00:21:44.230Z,7.47
2018-09-29T00:24:12.150Z,10.10
2018-09-29T00:26:40.049Z,7.30
2018-09-29T00:29:08.044Z,6.53
2018-09-29T00:31:35.993Z,6.13
2018-09-29T00:34:03.893Z,7.00
2018-09-29T00:36:31.992Z,8.07
2018-09-29T00:38:59.897Z,8.17
2018-09-29T00:41:27.787Z,6.10
2018-09-29T00:43:55.705Z,7.90
2018-09-29T00:46:23.701Z,6.90
2018-09-29T00:48:51.603Z,7.03
2018-09-29T00:51:19.581Z,6.67
2018-09-29T00:53:47.520Z,7.43
2018-09-29T00:56:15.496Z,6.80
2018-09-29T00:58:43.413Z,7.58
2018-09-29T01:01:11.363Z,6.33
2018-09-29T01:03:39.330Z,7.53
2018-09-29T01:06:07.245Z,6.00
2018-09-29T01:08:35.229Z,5.77
2018-09-29T01:11:03.148Z,7.53
2018-09-29T01:13:31.125Z,6.20
2018-09-29T01:15:59.081Z,4.07
2018-09-29T01:18:27.010Z,4.83
2018-09-29T01:20:54.948Z,5.50
2018-09-29T01:23:22.833Z,3.33
2018-09-29T01:25:50.824Z,9.00
2018-09-29T01:28:18.717Z,4.53
2018-09-29T01:30:46.596Z,3.30
2018-09-29T01:33:14.545Z,4.83
2018-09-29T01:35:42.479Z,5.53
2018-09-29T01:38:10.465Z,7.22
2018-09-29T01:40:38.394Z,5.93
2018-09-29T01:43:06.406Z,4.78
2018-09-29T01:45:34.295Z,5.00
2018-09-29T01:48:02.189Z,7.35
2018-09-29T01:50:30.237Z,5.60
2018-09-29T01:52:58.135Z,6.55
2018-09-29T01:55:26.049Z,5.60
2018-09-29T01:57:53.964Z,6.10
2018-09-29T02:00:21.890Z,6.15
2018-09-29T02:02:49.858Z,6.83
2018-09-29T02:05:17.896Z,4.78
2018-09-29T02:07:45.841Z,6.55
2018-09-29T02:10:13.798Z,5.80
2018-09-29T02:12:41.736Z,3.52
2018-09-29T02:15:09.870Z,8.15
2018-09-29T02:17:37.878Z,4.12
2018-09-29T02:20:05.847Z,6.60
2018-09-29T02:22:33.812Z,6.17
2018-09-29T02:25:01.746Z,8.13
2018-09-29T02:27:29.694Z,4.15
2018-09-29T02:29:57.603Z,6.55
2018-09-29T02:32:25.477Z,3.10
2018-09-29T02:34:53.365Z,5.30
2018-09-29T02:37:21.383Z,3.00
2018-09-29T02:39:49.268Z,5.10
2018-09-29T02:42:17.156Z,6.00
2018-09-29T02:44:45.082Z,4.20
2018-09-29T02:47:13.064Z,8.03
2018-09-29T02:49:41.021Z,6.65
2018-09-29T02:52:09.789Z,4.30
2018-09-29T02:54:37.725Z,3.40
2018-09-29T02:57:05.717Z,7.05
2018-09-29T02:59:33.682Z,3.55
2018-09-29T03:02:01.654Z,6.03
2018-09-29T03:04:29.556Z,6.55
2018-09-29T03:06:57.456Z,3.65
2018-09-29T03:09:25.405Z,5.08
2018-09-29T03:11:53.312Z,4.72
2018-09-29T03:14:21.213Z,4.75
2018-09-29T03:16:49.200Z,5.65
2018-09-29T03:19:17.135Z,4.85
2018-09-29T03:21:45.038Z,2.52
2018-09-29T03:24:12.981Z,5.10
2018-09-29T03:26:40.900Z,3.72
2018-09-29T03:29:08.824Z,4.20
2018-09-29T03:31:36.762Z,2.95
2018-09-29T03:34:04.694Z,5.22
2018-09-29T03:36:32.588Z,4.83
2018-09-29T03:39:00.525Z,4.00
2018-09-29T03:41:28.444Z,5.15
2018-09-29T03:43:56.350Z,5.03
2018-09-29T03:46:24.258Z,3.75
2018-09-29T03:48:52.166Z,2.75
2018-09-29T03:51:20.103Z,3.05
2018-09-29T03:53:48.005Z,5.17
2018-09-29T03:56:15.929Z,2.08
2018-09-29T03:58:43.902Z,4.60
2018-09-29T04:01:11.888Z,2.22
2018-09-29T04:03:39.825Z,4.40
2018-09-29T04:06:07.737Z,3.90
2018-09-29T04:08:35.640Z,2.67
2018-09-29T04:11:03.581Z,3.83
2018-09-29T04:13:32.531Z,5.90
2018-09-29T04:16:00.654Z,2.35
2018-09-29T04:18:28.542Z,3.70
2018-09-29T04:20:56.486Z,2.17
2018-09-29T04:23:24.472Z,1.85
2018-09-29T04:25:52.430Z,1.55
2018-09-29T04:28:20.364Z,2.52
2018-09-29T04:30:48.263Z,2.35
2018-09-29T04:33:16.133Z,1.22
2018-09-29T04:35:44.242Z,3.55
2018-09-29T04:38:12.114Z,2.10
2018-09-29T04:40:39.982Z,2.00
2018-09-29T04:43:07.941Z,5.10
2018-09-29T04:45:35.857Z,5.67
2018-09-29T04:48:03.785Z,4.90
2018-09-29T04:50:31.733Z,4.22
2018-09-29T04:52:59.677Z,5.20
2018-09-29T04:55:28.171Z,5.35
2018-09-29T04:57:56.094Z,2.62
2018-09-29T05:00:24.076Z,4.87
2018-09-29T05:02:51.937Z,1.20
2018-09-29T05:05:19.988Z,2.15
2018-09-29T05:07:47.941Z,3.42
2018-09-29T05:10:15.828Z,3.77
2018-09-29T05:12:43.762Z,2.25
2018-09-29T05:15:11.730Z,2.87
2018-09-29T05:17:39.670Z,3.98
2018-09-29T05:20:07.705Z,3.45
2018-09-29T05:22:35.579Z,1.80
2018-09-29T05:25:03.545Z,5.60
2018-09-29T05:27:31.448Z,5.08
2018-09-29T05:29:59.984Z,4.47
2018-09-29T05:32:27.861Z,2.45
2018-09-29T05:34:55.706Z,5.05
2018-09-29T05:37:23.749Z,2.55
2018-09-29T05:39:51.793Z,1.32
2018-09-29T05:42:19.768Z,1.87
2018-09-29T05:44:47.650Z,4.05
2018-09-29T05:47:15.618Z,1.67
2018-09-29T05:49:43.557Z,5.05
2018-09-29T05:52:11.505Z,2.95
2018-09-29T05:54:39.430Z,2.47
2018-09-29T05:57:07.465Z,8.55
2018-09-29T05:59:35.441Z,2.35
2018-09-29T06:02:03.390Z,5.45
2018-09-29T06:04:31.292Z,2.17
2018-09-29T06:06:59.331Z,3.72
2018-09-29T06:09:27.219Z,2.27
2018-09-29T06:11:55.113Z,3.02
2018-09-29T06:14:23.209Z,2.70
2018-09-29T06:16:51.121Z,1.75
2018-09-29T06:19:19.084Z,1.37
2018-09-29T06:21:46.981Z,1.98
2018-09-29T06:24:14.907Z,3.55
2018-09-29T06:26:42.872Z,3.52
2018-09-29T06:29:10.813Z,1.90
2018-09-29T06:31:38.746Z,3.15
2018-09-29T06:34:06.704Z,1.35
2018-09-29T06:36:34.626Z,5.45
2018-09-29T06:39:02.766Z,4.00
2018-09-29T06:41:30.906Z,2.22
2018-09-29T06:43:58.850Z,2.20
2018-09-29T06:46:26.841Z,2.33
2018-09-29T06:48:54.749Z,2.70
2018-09-29T06:51:22.687Z,2.75
2018-09-29T06:53:50.602Z,3.90
2018-09-29T06:56:18.760Z,5.47
2018-09-29T06:58:46.706Z,3.15
2018-09-29T07:01:14.631Z,1.47
2018-09-29T07:03:43.085Z,4.62
2018-09-29T07:06:11.145Z,3.10
2018-09-29T07:08:39.153Z,4.45
2018-09-29T07:11:07.126Z,2.50
2018-09-29T07:13:35.026Z,2.90
2018-09-29T07:16:02.978Z,2.25
2018-09-29T07:18:30.857Z,1.95
2018-09-29T07:20:58.873Z,2.35
2018-09-29T07:23:26.803Z,2.92
2018-09-29T07:25:55.060Z,1.72
2018-09-29T07:28:22.993Z,5.67
2018-09-29T07:30:50.957Z,2.77
2018-09-29T07:33:19.114Z,1.45
2018-09-29T07:35:46.988Z,2.25
2018-09-29T07:38:14.899Z,5.40
2018-09-29T07:40:42.797Z,5.62
2018-09-29T07:43:10.661Z,3.65
2018-09-29T07:45:38.632Z,3.92
2018-09-29T07:48:06.557Z,1.92
2018-09-29T07:50:34.545Z,1.30
2018-09-29T07:53:02.591Z,1.35
2018-09-29T07:55:31.391Z,1.60
2018-09-29T07:57:59.537Z,3.37
2018-09-29T08:00:27.642Z,3.65
2018-09-29T08:02:55.652Z,2.33
2018-09-29T08:05:23.546Z,2.05
2018-09-29T08:07:51.466Z,2.40
2018-09-29T08:10:21.521Z,1.50
2018-09-29T08:12:49.446Z,1.82
2018-09-29T08:15:17.557Z,2.05
2018-09-29T08:17:45.510Z,2.98
2018-09-29T08:20:13.453Z,3.65
2018-09-29T08:22:41.464Z,2.90
2018-09-29T08:25:09.429Z,1.45
2018-09-29T08:27:37.405Z,2.22
2018-09-29T08:30:05.455Z,3.35
2018-09-29T08:32:33.402Z,1.65
2018-09-29T08:35:01.382Z,4.80
2018-09-29T08:37:29.351Z,2.15
2018-09-29T08:39:57.409Z,1.03
2018-09-29T08:42:25.329Z,3.40
2018-09-29T08:44:53.213Z,3.03
2018-09-29T08:47:21.313Z,1.37
2018-09-29T08:49:49.346Z,5.70
2018-09-29T08:52:17.384Z,2.97
2018-09-29T08:54:45.293Z,1.00
2018-09-29T08:57:13.286Z,3.27
2018-09-29T08:59:42.161Z,2.93
2018-09-29T09:02:10.097Z,1.40
2018-09-29T09:04:38.082Z,1.33
2018-09-29T09:07:06.163Z,3.90
2018-09-29T09:09:34.579Z,1.40
2018-09-29T09:12:03.578Z,1.40
2018-09-29T09:14:31.489Z,1.73
2018-09-29T09:16:59.622Z,2.90
2018-09-29T09:19:27.505Z,1.57
2018-09-29T09:21:55.481Z,3.03
2018-09-29T09:24:23.434Z,1.03
2018-09-29T09:26:51.997Z,3.43
2018-09-29T09:29:20.597Z,1.73
2018-09-29T09:31:48.524Z,2.00
2018-09-29T09:34:16.485Z,1.13
2018-09-29T09:36:44.632Z,1.47
2018-09-29T09:39:12.556Z,2.30
2018-09-29T09:41:40.721Z,1.40
2018-09-29T09:44:08.849Z,2.83
2018-09-29T09:46:36.781Z,1.67
2018-09-29T09:49:04.821Z,1.73
2018-09-29T09:51:32.941Z,2.60
2018-09-29T09:54:01.026Z,1.13
2018-09-29T09:56:29.017Z,4.30
2018-09-29T09:58:57.258Z,1.83
2018-09-29T10:01:30.796Z,1.43
2018-09-29T10:03:58.747Z,1.23
2018-09-29T10:06:26.883Z,4.10
2018-09-29T10:08:54.764Z,5.53
2018-09-29T10:11:22.930Z,1.23
2018-09-29T10:13:50.868Z,4.33
2018-09-29T10:16:19.750Z,3.57
2018-09-29T10:18:48.636Z,1.10
2018-09-29T10:21:18.151Z,1.10
2018-09-29T10:23:46.105Z,1.87
2018-09-29T10:26:14.157Z,3.07
2018-09-29T10:28:42.634Z,3.83
2018-09-29T10:31:11.515Z,1.40
2018-09-29T10:33:40.358Z,1.60
2018-09-29T10:36:08.277Z,0.93
2018-09-29T10:38:36.233Z,2.53
2018-09-29T10:41:04.197Z,1.23
2018-09-29T10:43:32.305Z,2.20
2018-09-29T10:46:01.374Z,1.70
2018-09-29T10:48:29.465Z,2.57
2018-09-29T10:50:57.469Z,3.13
2018-09-29T10:53:25.432Z,3.50
2018-09-29T10:55:53.368Z,2.30
2018-09-29T10:58:21.904Z,1.80
2018-09-29T11:00:49.923Z,1.70
2018-09-29T11:03:17.918Z,3.80
2018-09-29T11:05:45.928Z,3.20
2018-09-29T11:08:14.137Z,3.73
2018-09-29T11:10:42.050Z,1.23
2018-09-29T11:13:10.267Z,1.47
2018-09-29T11:15:38.216Z,1.00
2018-09-29T11:18:06.213Z,1.90
2018-09-29T11:20:34.315Z,1.23
2018-09-29T11:23:02.235Z,1.60
2018-09-29T11:25:30.200Z,1.70
2018-09-29T11:27:58.336Z,3.17
2018-09-29T11:30:26.303Z,0.90
2018-09-29T11:32:54.293Z,1.43
2018-09-29T11:35:22.534Z,2.07
2018-09-29T11:37:51.019Z,4.03
2018-09-29T11:40:18.970Z,1.00
2018-09-29T11:42:46.884Z,1.53
2018-09-29T11:45:14.901Z,4.10
2018-09-29T11:47:43.108Z,1.43
2018-09-29T11:50:11.093Z,2.27
2018-09-29T11:52:39.085Z,2.93
2018-09-29T11:55:07.046Z,2.03
2018-09-29T11:57:34.982Z,1.90
2018-09-29T12:00:02.983Z,3.27
2018-09-29T12:02:31.009Z,1.10
2018-09-29T12:04:58.977Z,2.30
2018-09-29T12:07:27.878Z,3.90
2018-09-29T12:09:55.778Z,0.80
2018-09-29T12:12:23.731Z,3.10
2018-09-29T12:14:51.718Z,1.00
2018-09-29T12:17:19.617Z,1.27
2018-09-29T12:19:48.332Z,0.80
2018-09-29T12:22:16.352Z,2.57
2018-09-29T12:24:44.287Z,0.80
2018-09-29T12:27:12.332Z,1.10
2018-09-29T12:29:40.233Z,0.80
2018-09-29T12:32:08.208Z,1.20
2018-09-29T12:34:36.162Z,0.80
2018-09-29T12:37:04.278Z,7.33
2018-09-29T12:39:32.237Z,0.80
2018-09-29T12:42:00.215Z,0.80
2018-09-29T12:44:28.544Z,2.57
2018-09-29T12:46:56.450Z,1.20
2018-09-29T12:49:25.524Z,1.10
2018-09-29T12:51:53.525Z,0.80
2018-09-29T12:54:21.499Z,1.07
2018-09-29T12:56:49.522Z,1.67
2018-09-29T12:59:17.720Z,0.70
2018-09-29T13:01:46.057Z,1.43
2018-09-29T13:04:14.662Z,1.00
2018-09-29T13:06:42.879Z,2.30
2018-09-29T13:09:10.988Z,0.90
2018-09-29T13:11:39.080Z,1.37
2018-09-29T13:14:07.533Z,1.30
2018-09-29T13:16:36.257Z,3.13
2018-09-29T13:19:04.689Z,1.17
2018-09-29T13:21:32.698Z,0.90
2018-09-29T13:24:00.683Z,1.93
2018-09-29T13:26:28.986Z,2.90
2018-09-29T13:28:57.661Z,1.70
2018-09-29T13:31:25.645Z,0.93
2018-09-29T13:33:53.650Z,0.93
2018-09-29T13:36:21.754Z,3.20
2018-09-29T13:38:50.130Z,1.33
2018-09-29T13:41:18.410Z,1.57
2018-09-29T13:43:46.826Z,2.10
2018-09-29T13:46:15.730Z,3.17
2018-09-29T13:48:43.936Z,1.10
2018-09-29T13:51:12.009Z,1.60
2018-09-29T13:53:40.270Z,1.53
2018-09-29T13:56:08.273Z,1.00
2018-09-29T13:58:36.219Z,1.37
2018-09-29T14:01:04.334Z,2.50
2018-09-29T14:03:32.291Z,1.17
2018-09-29T14:06:00.381Z,1.00
2018-09-29T14:08:28.428Z,2.80
2018-09-29T14:10:56.416Z,1.90
2018-09-29T14:13:24.445Z,1.33
2018-09-29T14:15:52.629Z,2.03
2018-09-29T14:18:20.906Z,1.30
2018-09-29T14:20:48.653Z,1.10
2018-09-29T14:23:19.733Z,1.40
2018-09-29T14:25:48.196Z,1.53
2018-09-29T14:28:16.212Z,2.77
2018-09-29T14:30:44.228Z,2.40
2018-09-29T14:33:12.172Z,1.20
2018-09-29T14:35:40.152Z,1.90
2018-09-29T14:38:08.080Z,1.73
2018-09-29T14:40:36.041Z,3.07
2018-09-29T14:43:04.021Z,1.50
2018-09-29T14:45:31.942Z,3.17
2018-09-29T14:47:59.704Z,2.13
2018-09-29T14:50:27.472Z,1.30
2018-09-29T14:52:55.224Z,1.03
2018-09-29T14:55:22.996Z,1.20
2018-09-29T14:57:50.790Z,1.83
2018-09-29T15:00:18.528Z,1.70
2018-09-29T15:02:46.304Z,2.07
2018-09-29T15:05:14.044Z,1.93
2018-09-29T15:07:41.800Z,1.57
2018-09-29T15:10:09.574Z,1.50
2018-09-29T15:12:37.288Z,1.90
2018-09-29T15:15:05.818Z,1.20
2018-09-29T15:17:33.577Z,2.60
2018-09-29T15:20:01.353Z,2.73
2018-09-29T15:22:29.089Z,2.73
2018-09-29T15:24:57.643Z,1.53
2018-09-29T15:27:25.407Z,1.40
2018-09-29T15:29:53.185Z,1.40
2018-09-29T15:32:20.985Z,1.70
2018-09-29T15:34:48.752Z,2.40
2018-09-29T15:37:16.558Z,1.47
2018-09-29T15:39:44.357Z,1.40
2018-09-29T15:42:12.095Z,1.87
2018-09-29T15:44:39.912Z,1.77
2018-09-29T15:47:07.744Z,1.30
2018-09-29T15:49:35.506Z,3.80
2018-09-29T15:52:04.380Z,1.30
2018-09-29T15:54:32.269Z,1.27
2018-09-29T15:57:00.242Z,0.97
2018-09-29T15:59:27.986Z,1.30
2018-09-29T16:01:55.744Z,1.20
2018-09-29T16:04:23.657Z,1.50
2018-09-29T16:06:51.385Z,4.17
2018-09-29T16:09:19.168Z,7.53
2018-09-29T16:11:46.930Z,2.40
2018-09-29T16:14:14.760Z,5.57
2018-09-29T16:16:42.540Z,4.60
2018-09-29T16:19:10.264Z,9.13
2018-09-29T16:21:38.096Z,7.73
2018-09-29T16:24:05.840Z,15.97
2018-09-29T16:26:33.719Z,11.90
2018-09-29T16:29:01.489Z,26.70
2018-09-29T16:31:29.427Z,13.83
2018-09-29T16:33:57.221Z,48.97
2018-09-29T16:36:25.150Z,44.40
2018-09-29T16:38:53.143Z,27.20
2018-09-29T16:41:21.194Z,16.73
2018-09-29T16:43:49.201Z,3.53
2018-09-29T16:46:17.150Z,2.67
2018-09-29T16:48:45.137Z,3.90
2018-09-29T16:51:13.209Z,3.90
2018-09-29T16:53:41.150Z,3.47
2018-09-29T16:56:09.099Z,2.50
2018-09-29T16:58:36.983Z,1.73
2018-09-29T17:01:05.083Z,2.00
2018-09-29T17:03:33.112Z,1.80
2018-09-29T17:06:01.023Z,3.13
2018-09-29T17:08:28.964Z,4.57
2018-09-29T17:10:57.435Z,4.77
2018-09-29T17:13:25.413Z,2.47
2018-09-29T17:15:53.423Z,3.23
2018-09-29T17:18:21.449Z,2.33
2018-09-29T17:20:49.372Z,9.50
2018-09-29T17:23:17.329Z,13.90
2018-09-29T17:25:45.252Z,33.33
2018-09-29T17:28:13.471Z,66.73
2018-09-29T17:30:41.379Z,107.57
2018-09-29T17:33:09.287Z,38.73
2018-09-29T17:35:38.292Z,16.43
2018-09-29T17:38:06.238Z,7.33
2018-09-29T17:40:34.229Z,5.17
2018-09-29T17:43:02.721Z,3.10
2018-09-29T17:45:30.646Z,3.10
2018-09-29T17:47:58.704Z,3.13
2018-09-29T17:50:26.839Z,1.83
2018-09-29T17:52:55.218Z,1.80
2018-09-29T17:55:23.127Z,3.07
2018-09-29T17:57:51.040Z,2.50
2018-09-29T18:00:18.968Z,38.53
2018-09-29T18:02:47.095Z,29.20
2018-09-29T18:05:14.983Z,78.13
2018-09-29T18:07:42.906Z,40.60
2018-09-29T18:10:10.899Z,38.37
2018-09-29T18:12:38.778Z,28.37
2018-09-29T18:15:06.778Z,32.63
2018-09-29T18:17:34.678Z,22.53
2018-09-29T18:20:02.746Z,5.73
2018-09-29T18:22:30.694Z,16.10
2018-09-29T18:24:58.617Z,17.47
2018-09-29T18:27:26.619Z,10.20
2018-09-29T18:29:54.558Z,13.97
2018-09-29T18:32:22.560Z,3.73
2018-09-29T18:34:50.428Z,4.67
2018-09-29T18:37:18.474Z,4.00
2018-09-29T18:39:46.368Z,4.00
2018-09-29T18:42:14.506Z,5.58
2018-09-29T18:44:42.520Z,4.73
2018-09-29T18:47:10.546Z,6.20
2018-09-29T18:49:38.824Z,3.70
2018-09-29T18:52:06.981Z,3.60
2018-09-29T18:54:34.957Z,3.05
2018-09-29T18:57:02.879Z,3.30
2018-09-29T18:59:30.838Z,3.60
2018-09-29T19:01:58.778Z,3.75
2018-09-29T19:04:26.745Z,3.65
2018-09-29T19:06:54.756Z,3.15
2018-09-29T19:09:22.714Z,3.00
2018-09-29T19:11:50.695Z,5.08
2018-09-29T19:14:20.356Z,21.77
2018-09-29T19:16:48.450Z,243.12
2018-09-29T19:19:16.421Z,206.93
2018-09-29T19:21:44.389Z,110.10
2018-09-29T19:24:12.348Z,114.20
2018-09-29T19:26:40.326Z,60.15
2018-09-29T19:29:08.632Z,20.85
2018-09-29T19:31:36.569Z,27.60
2018-09-29T19:34:04.528Z,21.48
2018-09-29T19:36:33.906Z,7.03
2018-09-29T19:39:02.478Z,5.55
2018-09-29T19:41:31.165Z,3.12
2018-09-29T19:44:01.966Z,3.00
2018-09-29T19:46:30.233Z,4.35
2018-09-29T19:48:58.165Z,3.27
2018-09-29T19:51:26.599Z,4.20
2018-09-29T19:53:54.592Z,3.98
2018-09-29T19:56:22.827Z,3.60
2018-09-29T19:58:50.780Z,3.72
2018-09-29T20:01:18.703Z,4.92
2018-09-29T20:03:46.803Z,6.35
2018-09-29T20:06:14.724Z,3.90
2018-09-29T20:08:42.640Z,4.62
2018-09-29T20:11:11.521Z,4.28
2018-09-29T20:13:39.431Z,3.30
2018-09-29T20:16:07.624Z,6.78
2018-09-29T20:18:35.710Z,4.33
2018-09-29T20:21:03.690Z,3.90
2018-09-29T20:23:31.634Z,3.30
2018-09-29T20:25:59.584Z,3.87
2018-09-29T20:28:27.574Z,3.70
2018-09-29T20:30:55.468Z,6.28
2018-09-29T20:33:23.438Z,3.72
2018-09-29T20:35:51.500Z,3.35
2018-09-29T20:38:19.393Z,3.00
2018-09-29T20:40:47.365Z,3.60
2018-09-29T20:43:15.323Z,4.20
2018-09-29T20:45:43.327Z,6.10
2018-09-29T20:48:11.285Z,7.30
2018-09-29T20:50:39.204Z,5.95
2018-09-29T20:53:07.244Z,5.05
2018-09-29T20:55:35.162Z,3.35
2018-09-29T20:58:03.157Z,3.70
2018-09-29T21:00:31.114Z,4.03
2018-09-29T21:02:59.079Z,4.92
2018-09-29T21:05:27.102Z,5.42
2018-09-29T21:07:55.092Z,4.10
2018-09-29T21:10:23.046Z,5.12
2018-09-29T21:12:50.982Z,2.83
2018-09-29T21:15:19.768Z,2.95
2018-09-29T21:17:47.728Z,2.62
2018-09-29T21:20:15.701Z,3.47
2018-09-29T21:22:43.908Z,4.00
2018-09-29T21:25:11.927Z,4.50
2018-09-29T21:27:39.863Z,5.25
2018-09-29T21:30:08.297Z,11.88
2018-09-29T21:32:36.281Z,14.13
2018-09-29T21:35:04.342Z,8.25
2018-09-29T21:37:32.312Z,7.42
2018-09-29T21:40:00.202Z,5.47
2018-09-29T21:42:28.182Z,3.87
2018-09-29T21:44:56.033Z,9.60
2018-09-29T21:47:23.989Z,10.30
2018-09-29T21:49:51.913Z,6.53
2018-09-29T21:52:19.900Z,4.45
2018-09-29T21:54:48.588Z,5.45
2018-09-29T21:57:16.483Z,2.83
2018-09-29T21:59:44.425Z,3.15
2018-09-29T22:02:12.313Z,3.45
2018-09-29T22:04:40.281Z,3.10
2018-09-29T22:07:08.239Z,3.42
2018-09-29T22:09:36.147Z,2.62
2018-09-29T22:12:04.672Z,3.30
2018-09-29T22:14:32.682Z,3.72
2018-09-29T22:17:01.104Z,3.90
2018-09-29T22:19:29.117Z,3.30
2018-09-29T22:21:57.513Z,2.90
2018-09-29T22:24:25.456Z,3.05
2018-09-29T22:26:53.349Z,3.17
2018-09-29T22:29:21.281Z,2.35
2018-09-29T22:31:49.299Z,2.55
2018-09-29T22:34:17.217Z,2.70
2018-09-29T22:36:45.137Z,2.95
2018-09-29T22:39:13.109Z,2.80
2018-09-29T22:41:41.017Z,2.30
2018-09-29T22:44:09.316Z,2.12
2018-09-29T22:46:37.244Z,3.95
2018-09-29T22:49:05.546Z,4.03
2018-09-29T22:51:33.480Z,2.15
2018-09-29T22:54:01.405Z,5.10
2018-09-29T22:56:29.373Z,2.50
2018-09-29T22:58:57.354Z,2.65
2018-09-29T23:01:25.338Z,2.52
2018-09-29T23:03:53.744Z,2.37
2018-09-29T23:06:21.675Z,2.80
2018-09-29T23:08:49.816Z,4.70
2018-09-29T23:11:17.788Z,1.80
2018-09-29T23:13:45.705Z,2.62
2018-09-29T23:16:13.905Z,2.55
2018-09-29T23:18:42.121Z,2.75
2018-09-29T23:21:10.848Z,3.50
2018-09-29T23:23:38.785Z,2.75
2018-09-29T23:26:06.773Z,2.22
2018-09-29T23:28:34.718Z,3.37
2018-09-29T23:31:02.656Z,2.80
2018-09-29T23:33:31.568Z,3.35
2018-09-29T23:35:59.503Z,3.15
2018-09-29T23:38:27.419Z,1.98
2018-09-29T23:40:55.371Z,2.65
2018-09-29T23:43:23.365Z,2.87
2018-09-29T23:45:51.371Z,2.30
2018-09-29T23:48:19.281Z,2.10
2018-09-29T23:50:47.253Z,2.40
2018-09-29T23:53:15.302Z,2.90
2018-09-29T23:55:43.249Z,2.40
2018-09-29T23:58:11.812Z,2.37
